createdAt,value
2023-04-18T00:00:39.607Z,98832.41
2023-04-18T00:01:42.084Z,98842.56
2023-04-18T00:02:44.134Z,98827.19
2023-04-18T00:03:47.218Z,98838.22
2023-04-18T00:04:50.447Z,98835.06
2023-04-18T00:05:52.122Z,98830.41
2023-04-18T00:06:53.780Z,98837.34
2023-04-18T00:07:56.353Z,98827.97
2023-04-18T00:08:57.941Z,98830.41
2023-04-18T00:09:59.542Z,98831.38
2023-04-18T00:11:01.033Z,98833.63
2023-04-18T00:12:04.896Z,98836.25
2023-04-18T00:13:07.475Z,98832.91
2023-04-18T00:14:10.423Z,98835.16
2023-04-18T00:15:12.362Z,98823.31
2023-04-18T00:16:13.961Z,98827.59
2023-04-18T00:17:16.091Z,98825.81
2023-04-18T00:18:17.630Z,98830.44
2023-04-18T00:19:20.115Z,98825.03
2023-04-18T00:20:21.648Z,98830.44
2023-04-18T00:21:23.220Z,98837.13
2023-04-18T00:22:25.323Z,98829.22
2023-04-18T00:23:28.063Z,98827.34
2023-04-18T00:24:29.755Z,98827.13
2023-04-18T00:25:31.569Z,98832.53
2023-04-18T00:26:33.081Z,98827.34
2023-04-18T00:27:34.664Z,98829.00
2023-04-18T00:28:36.169Z,98829.22
2023-04-18T00:29:38.022Z,98825.69
2023-04-18T00:30:39.573Z,98830.28
2023-04-18T00:31:41.145Z,98817.78
2023-04-18T00:32:42.708Z,98823.81
2023-04-18T00:33:44.252Z,98821.94
2023-04-18T00:34:46.182Z,98824.84
2023-04-18T00:35:47.671Z,98825.75
2023-04-18T00:36:49.193Z,98821.16
2023-04-18T00:37:51.017Z,98829.66
2023-04-18T00:38:52.567Z,98821.53
2023-04-18T00:39:54.409Z,98833.38
2023-04-18T00:40:55.933Z,98824.19
2023-04-18T00:41:57.507Z,98824.19
2023-04-18T00:42:59.088Z,98822.31
2023-04-18T00:44:00.731Z,98817.13
2023-04-18T00:45:02.580Z,98814.88
2023-04-18T00:46:04.138Z,98818.41
2023-04-18T00:47:05.958Z,98823.59
2023-04-18T00:48:07.544Z,98813.59
2023-04-18T00:49:09.158Z,98810.72
2023-04-18T00:50:11.268Z,98814.69
2023-04-18T00:51:12.770Z,98812.81
2023-04-18T00:52:14.293Z,98820.19
2023-04-18T00:53:16.003Z,98816.28
2023-04-18T00:54:18.200Z,98824.59
2023-04-18T00:55:19.706Z,98815.91
2023-04-18T00:56:23.734Z,98794.84
2023-04-18T00:57:25.281Z,98817.63
2023-04-18T00:58:26.895Z,98821.38
2023-04-18T00:59:28.763Z,98819.91
2023-04-18T01:00:30.914Z,98819.41
2023-04-18T01:01:33.701Z,98820.63
2023-04-18T01:02:35.753Z,98821.25
2023-04-18T01:03:37.641Z,98819.19
2023-04-18T01:04:39.805Z,98825.66
2023-04-18T01:05:41.491Z,98824.25
2023-04-18T01:06:44.122Z,98824.25
2023-04-18T01:07:45.692Z,98827.22
2023-04-18T01:08:47.264Z,98821.69
2023-04-18T01:09:49.637Z,98820.28
2023-04-18T01:10:51.269Z,98819.84
2023-04-18T01:11:52.730Z,98814.41
2023-04-18T01:13:15.251Z,98823.38
2023-04-18T01:14:17.132Z,98817.59
2023-04-18T01:15:18.756Z,98809.47
2023-04-18T01:16:20.818Z,98809.56
2023-04-18T01:17:23.278Z,98808.34
2023-04-18T01:18:25.409Z,98807.06
2023-04-18T01:19:27.347Z,98805.41
2023-04-18T01:20:28.982Z,98797.03
2023-04-18T01:21:31.303Z,98802.88
2023-04-18T01:22:33.055Z,98800.84
2023-04-18T01:23:34.584Z,98782.25
2023-04-18T01:24:36.573Z,98808.41
2023-04-18T01:25:38.826Z,98802.94
2023-04-18T01:26:40.738Z,98805.38
2023-04-18T01:27:42.217Z,98798.81
2023-04-18T01:28:43.723Z,98804.00
2023-04-18T01:29:45.953Z,98803.28
2023-04-18T01:30:47.445Z,98801.97
2023-04-18T01:31:49.321Z,98801.53
2023-04-18T01:32:50.840Z,98799.97
2023-04-18T01:33:52.387Z,98806.19
2023-04-18T01:34:54.206Z,98797.41
2023-04-18T01:35:55.703Z,98795.38
2023-04-18T01:36:57.333Z,98794.16
2023-04-18T01:37:59.059Z,98796.25
2023-04-18T01:39:00.773Z,98791.84
2023-04-18T01:40:02.700Z,98796.25
2023-04-18T01:41:04.218Z,98795.38
2023-04-18T01:42:05.767Z,98799.88
2023-04-18T01:43:07.258Z,98791.16
2023-04-18T01:44:08.768Z,98785.75
2023-04-18T01:45:11.316Z,98792.69
2023-04-18T01:46:12.849Z,98785.44
2023-04-18T01:47:14.361Z,98787.53
2023-04-18T01:48:15.878Z,98794.16
2023-04-18T01:49:17.342Z,98792.19
2023-04-18T01:50:18.973Z,98788.63
2023-04-18T01:51:20.450Z,98791.72
2023-04-18T01:52:21.978Z,98791.03
2023-04-18T01:53:24.116Z,98781.88
2023-04-18T01:54:25.793Z,98789.75
2023-04-18T01:55:27.312Z,98786.13
2023-04-18T01:56:28.890Z,98785.94
2023-04-18T01:57:30.847Z,98788.88
2023-04-18T01:58:32.366Z,98785.34
2023-04-18T01:59:34.228Z,98787.19
2023-04-18T02:00:35.791Z,98777.75
2023-04-18T02:01:37.352Z,98779.28
2023-04-18T02:02:38.999Z,98778.81
2023-04-18T02:03:40.950Z,98782.59
2023-04-18T02:04:42.963Z,98782.97
2023-04-18T02:05:44.426Z,98781.25
2023-04-18T02:06:45.989Z,98776.09
2023-04-18T02:07:49.170Z,98778.47
2023-04-18T02:08:50.687Z,98779.50
2023-04-18T02:09:52.557Z,98781.31
2023-04-18T02:10:54.057Z,98781.94
2023-04-18T02:11:59.253Z,98787.34
2023-04-18T02:13:00.739Z,98783.44
2023-04-18T02:14:02.238Z,98784.25
2023-04-18T02:15:04.480Z,98782.09
2023-04-18T02:16:06.533Z,98778.91
2023-04-18T02:17:08.082Z,98781.50
2023-04-18T02:18:09.735Z,98778.81
2023-04-18T02:19:11.670Z,98779.50
2023-04-18T02:20:13.671Z,98785.31
2023-04-18T02:21:15.209Z,98782.41
2023-04-18T02:22:18.152Z,98785.78
2023-04-18T02:23:19.596Z,98780.84
2023-04-18T02:24:21.142Z,98782.75
2023-04-18T02:25:24.554Z,98782.13
2023-04-18T02:26:26.129Z,98788.16
2023-04-18T02:27:27.815Z,98780.84
2023-04-18T02:28:29.307Z,98784.56
2023-04-18T02:29:30.829Z,98789.97
2023-04-18T02:30:32.384Z,98779.50
2023-04-18T02:31:33.951Z,98783.22
2023-04-18T02:32:35.539Z,98783.22
2023-04-18T02:33:37.187Z,98784.88
2023-04-18T02:34:39.436Z,98790.28
2023-04-18T02:35:41.114Z,98773.28
2023-04-18T02:36:43.079Z,98791.47
2023-04-18T02:37:44.578Z,98787.22
2023-04-18T02:38:46.114Z,98790.97
2023-04-18T02:39:47.695Z,98786.34
2023-04-18T02:40:49.192Z,98789.78
2023-04-18T02:41:50.687Z,98789.38
2023-04-18T02:42:52.251Z,98786.66
2023-04-18T02:43:54.825Z,98783.97
2023-04-18T02:44:56.590Z,98783.13
2023-04-18T02:45:58.230Z,98791.25
2023-04-18T02:46:59.779Z,98791.47
2023-04-18T02:48:01.378Z,98788.97
2023-04-18T02:49:03.023Z,98788.75
2023-04-18T02:50:04.892Z,98793.72
2023-04-18T02:51:06.906Z,98786.66
2023-04-18T02:52:08.444Z,98786.22
2023-04-18T02:53:09.973Z,98794.91
2023-04-18T02:54:11.653Z,98786.56
2023-04-18T02:55:13.416Z,98789.06
2023-04-18T02:56:17.003Z,98790.09
2023-04-18T02:57:18.610Z,98797.47
2023-04-18T02:58:20.207Z,98793.72
2023-04-18T02:59:21.723Z,98791.63
2023-04-18T03:00:23.624Z,98793.03
2023-04-18T03:01:25.229Z,98794.56
2023-04-18T03:02:26.902Z,98789.97
2023-04-18T03:03:28.474Z,98795.00
2023-04-18T03:04:30.066Z,98787.22
2023-04-18T03:05:31.622Z,98795.19
2023-04-18T03:06:33.193Z,98789.09
2023-04-18T03:07:34.742Z,98794.94
2023-04-18T03:08:36.303Z,98803.50
2023-04-18T03:09:37.827Z,98795.53
2023-04-18T03:10:39.940Z,98793.53
2023-04-18T03:11:41.675Z,98793.06
2023-04-18T03:12:43.286Z,98798.41
2023-04-18T03:13:44.805Z,98792.31
2023-04-18T03:14:46.343Z,98794.16
2023-04-18T03:15:47.922Z,98793.78
2023-04-18T03:16:49.467Z,98792.56
2023-04-18T03:17:51.056Z,98792.84
2023-04-18T03:18:52.598Z,98795.09
2023-04-18T03:19:54.318Z,98800.72
2023-04-18T03:20:55.924Z,98797.16
2023-04-18T03:21:57.464Z,98796.88
2023-04-18T03:22:59.018Z,98793.72
2023-04-18T03:24:00.676Z,98794.47
2023-04-18T03:25:02.191Z,98794.25
2023-04-18T03:26:05.827Z,98795.38
2023-04-18T03:27:07.429Z,98797.16
2023-04-18T03:28:08.995Z,98795.66
2023-04-18T03:29:10.540Z,98787.91
2023-04-18T03:30:12.152Z,98782.44
2023-04-18T03:31:13.849Z,98794.91
2023-04-18T03:32:15.570Z,98788.84
2023-04-18T03:33:17.198Z,98792.38
2023-04-18T03:34:18.759Z,98787.78
2023-04-18T03:35:20.845Z,98790.88
2023-04-18T03:36:25.681Z,98789.38
2023-04-18T03:37:27.341Z,98792.47
2023-04-18T03:38:28.898Z,98790.59
2023-04-18T03:39:30.562Z,98787.66
2023-04-18T03:40:32.263Z,98788.50
2023-04-18T03:41:34.154Z,98787.34
2023-04-18T03:42:36.242Z,98791.09
2023-04-18T03:43:37.906Z,98787.50
2023-04-18T03:44:39.418Z,98782.09
2023-04-18T03:45:41.140Z,98787.06
2023-04-18T03:46:43.090Z,98789.16
2023-04-18T03:47:44.675Z,98788.09
2023-04-18T03:48:46.184Z,98786.00
2023-04-18T03:49:47.693Z,98790.16
2023-04-18T03:50:49.825Z,98789.31
2023-04-18T03:51:52.331Z,98785.91
2023-04-18T03:52:53.958Z,98786.75
2023-04-18T03:53:55.559Z,98791.94
2023-04-18T03:54:57.061Z,98787.13
2023-04-18T03:55:58.578Z,98789.22
2023-04-18T03:57:00.446Z,98789.41
2023-04-18T03:58:02.110Z,98782.16
2023-04-18T03:59:03.659Z,98786.25
2023-04-18T04:00:07.987Z,98793.75
2023-04-18T04:01:09.584Z,98802.47
2023-04-18T04:02:11.218Z,98793.38
2023-04-18T04:03:12.911Z,98798.69
2023-04-18T04:04:15.670Z,98799.53
2023-04-18T04:05:17.372Z,98795.78
2023-04-18T04:06:18.894Z,98789.25
2023-04-18T04:07:20.738Z,98795.63
2023-04-18T04:08:22.247Z,98798.41
2023-04-18T04:09:23.779Z,98796.75
2023-04-18T04:10:25.564Z,98785.94
2023-04-18T04:11:27.192Z,98795.72
2023-04-18T04:12:29.119Z,98793.59
2023-04-18T04:13:30.712Z,98796.88
2023-04-18T04:14:32.675Z,98793.13
2023-04-18T04:15:34.249Z,98792.09
2023-04-18T04:16:35.887Z,98790.22
2023-04-18T04:17:37.501Z,98796.66
2023-04-18T04:18:39.082Z,98798.19
2023-04-18T04:19:40.590Z,98800.06
2023-04-18T04:20:42.103Z,98799.25
2023-04-18T04:21:43.629Z,98799.91
2023-04-18T04:22:45.176Z,98798.25
2023-04-18T04:23:46.745Z,98803.06
2023-04-18T04:24:48.311Z,98807.41
2023-04-18T04:25:49.814Z,98812.59
2023-04-18T04:26:51.429Z,98803.22
2023-04-18T04:27:53.715Z,98805.69
2023-04-18T04:28:55.249Z,98805.41
2023-04-18T04:29:56.793Z,98803.97
2023-04-18T04:30:58.333Z,98803.31
2023-04-18T04:32:00.077Z,98811.16
2023-04-18T04:33:01.994Z,98804.50
2023-04-18T04:34:04.954Z,98801.13
2023-04-18T04:35:08.406Z,98807.72
2023-04-18T04:36:10.050Z,98808.25
2023-04-18T04:37:14.017Z,98800.06
2023-04-18T04:38:16.001Z,98803.53
2023-04-18T04:39:17.537Z,98818.84
2023-04-18T04:40:19.215Z,98823.03
2023-04-18T04:41:22.364Z,98821.41
2023-04-18T04:42:25.203Z,98808.34
2023-04-18T04:43:28.760Z,98820.28
2023-04-18T04:44:31.333Z,98822.00
2023-04-18T04:45:33.271Z,98823.50
2023-04-18T04:46:34.852Z,98811.16
2023-04-18T04:47:36.738Z,98821.94
2023-04-18T04:48:38.386Z,98818.53
2023-04-18T04:49:39.882Z,98816.44
2023-04-18T04:50:41.816Z,98811.44
2023-04-18T04:51:44.347Z,98814.53
2023-04-18T04:52:45.960Z,98823.00
2023-04-18T04:53:47.543Z,98823.81
2023-04-18T04:54:50.646Z,98813.94
2023-04-18T04:55:52.207Z,98818.50
2023-04-18T04:56:53.752Z,98817.22
2023-04-18T04:57:56.089Z,98808.06
2023-04-18T04:58:57.624Z,98818.88
2023-04-18T04:59:59.188Z,98823.81
2023-04-18T05:01:00.848Z,98816.53
2023-04-18T05:02:02.515Z,98817.59
2023-04-18T05:03:04.357Z,98814.81
2023-04-18T05:04:06.281Z,98817.31
2023-04-18T05:05:08.205Z,98822.50
2023-04-18T05:06:09.741Z,98822.50
2023-04-18T05:07:11.275Z,98822.22
2023-04-18T05:08:12.818Z,98822.50
2023-04-18T05:09:14.346Z,98824.72
2023-04-18T05:10:15.926Z,98825.31
2023-04-18T05:11:17.521Z,98815.31
2023-04-18T05:12:19.041Z,98821.13
2023-04-18T05:13:20.656Z,98814.72
2023-04-18T05:14:22.702Z,98826.09
2023-04-18T05:15:24.868Z,98825.84
2023-04-18T05:16:26.527Z,98830.19
2023-04-18T05:17:28.124Z,98825.38
2023-04-18T05:18:29.715Z,98834.34
2023-04-18T05:19:31.251Z,98832.22
2023-04-18T05:20:32.764Z,98826.44
2023-04-18T05:21:34.459Z,98828.53
2023-04-18T05:22:36.158Z,98835.38
2023-04-18T05:23:37.706Z,98825.59
2023-04-18T05:24:39.557Z,98832.34
2023-04-18T05:25:41.097Z,98831.25
2023-04-18T05:26:43.053Z,98836.44
2023-04-18T05:27:45.422Z,98832.69
2023-04-18T05:28:46.969Z,98837.19
2023-04-18T05:29:50.252Z,98838.84
2023-04-18T05:30:52.030Z,98821.41
2023-04-18T05:31:53.732Z,98836.50
2023-04-18T05:32:55.293Z,98830.84
2023-04-18T05:33:56.930Z,98832.06
2023-04-18T05:34:58.468Z,98840.78
2023-04-18T05:35:59.983Z,98839.13
2023-04-18T05:37:01.534Z,98837.47
2023-04-18T05:38:03.258Z,98837.47
2023-04-18T05:39:05.104Z,98840.19
2023-04-18T05:40:09.048Z,98829.81
2023-04-18T05:41:10.592Z,98836.19
2023-04-18T05:42:12.302Z,98831.00
2023-04-18T05:43:13.866Z,98834.53
2023-04-18T05:44:16.139Z,98834.31
2023-04-18T05:45:17.733Z,98830.31
2023-04-18T05:46:19.309Z,98833.84
2023-04-18T05:47:21.228Z,98839.84
2023-04-18T05:48:23.390Z,98834.44
2023-04-18T05:49:24.916Z,98834.00
2023-04-18T05:50:26.509Z,98835.28
2023-04-18T05:51:28.668Z,98838.19
2023-04-18T05:52:31.296Z,98843.16
2023-04-18T05:53:32.840Z,98836.47
2023-04-18T05:54:34.364Z,98839.78
2023-04-18T05:55:36.035Z,98849.31
2023-04-18T05:56:37.546Z,98841.78
2023-04-18T05:57:40.562Z,98842.63
2023-04-18T05:58:42.101Z,98815.38
2023-04-18T05:59:43.645Z,98839.69
2023-04-18T06:00:45.339Z,98844.28
2023-04-18T06:01:46.875Z,98843.22
2023-04-18T06:02:49.736Z,98843.88
2023-04-18T06:03:51.543Z,98846.84
2023-04-18T06:04:53.463Z,98844.50
2023-04-18T06:05:55.277Z,98846.44
2023-04-18T06:06:56.831Z,98851.94
2023-04-18T06:07:58.389Z,98850.97
2023-04-18T06:08:59.889Z,98850.50
2023-04-18T06:10:01.451Z,98848.84
2023-04-18T06:11:03.186Z,98849.47
2023-04-18T06:12:04.831Z,98829.03
2023-04-18T06:13:06.369Z,98848.41
2023-04-18T06:14:07.974Z,98849.38
2023-04-18T06:15:10.319Z,98846.91
2023-04-18T06:16:11.963Z,98850.50
2023-04-18T06:17:13.987Z,98846.75
2023-04-18T06:18:15.529Z,98846.06
2023-04-18T06:19:17.051Z,98849.59
2023-04-18T06:20:18.778Z,98847.13
2023-04-18T06:21:20.890Z,98856.88
2023-04-18T06:22:22.423Z,98850.28
2023-04-18T06:23:23.942Z,98857.81
2023-04-18T06:24:25.835Z,98852.16
2023-04-18T06:25:27.523Z,98858.91
2023-04-18T06:26:30.525Z,98851.38
2023-04-18T06:27:32.207Z,98852.91
2023-04-18T06:28:33.772Z,98846.53
2023-04-18T06:29:36.210Z,98850.38
2023-04-18T06:30:39.076Z,98854.91
2023-04-18T06:31:42.135Z,98857.63
2023-04-18T06:32:43.989Z,98856.34
2023-04-18T06:33:45.651Z,98852.69
2023-04-18T06:34:47.214Z,98860.53
2023-04-18T06:35:48.791Z,98860.38
2023-04-18T06:36:50.445Z,98862.25
2023-04-18T06:37:52.100Z,98866.53
2023-04-18T06:38:53.646Z,98853.22
2023-04-18T06:39:55.181Z,98857.09
2023-04-18T06:40:56.809Z,98854.91
2023-04-18T06:41:58.336Z,98863.84
2023-04-18T06:42:59.902Z,98860.53
2023-04-18T06:44:03.421Z,98853.09
2023-04-18T06:45:06.608Z,98859.38
2023-04-18T06:46:08.176Z,98860.81
2023-04-18T06:47:09.775Z,98864.19
2023-04-18T06:48:11.297Z,98862.88
2023-04-18T06:49:12.788Z,98861.38
2023-04-18T06:50:14.489Z,98860.81
2023-04-18T06:51:16.219Z,98866.25
2023-04-18T06:52:17.716Z,98863.72
2023-04-18T06:53:19.265Z,98864.50
2023-04-18T06:54:21.028Z,98861.00
2023-04-18T06:55:23.204Z,98864.78
2023-04-18T06:56:24.729Z,98858.31
2023-04-18T06:57:26.342Z,98865.94
2023-04-18T06:58:27.931Z,98859.38
2023-04-18T06:59:29.449Z,98858.53
2023-04-18T07:00:31.096Z,98864.88
2023-04-18T07:01:35.520Z,98863.13
2023-04-18T07:02:37.878Z,98862.06
2023-04-18T07:03:39.719Z,98869.38
2023-04-18T07:04:41.545Z,98861.47
2023-04-18T07:05:43.548Z,98864.56
2023-04-18T07:06:45.065Z,98866.44
2023-04-18T07:07:46.633Z,98862.28
2023-04-18T07:08:48.186Z,98868.53
2023-04-18T07:09:50.140Z,98872.53
2023-04-18T07:10:51.747Z,98869.19
2023-04-18T07:11:53.252Z,98862.34
2023-04-18T07:12:54.806Z,98880.44
2023-04-18T07:13:56.569Z,98871.91
2023-04-18T07:14:58.162Z,98863.94
2023-04-18T07:15:59.813Z,98869.44
2023-04-18T07:17:01.804Z,98869.63
2023-04-18T07:18:03.574Z,98878.78
2023-04-18T07:19:06.640Z,98868.00
2023-04-18T07:20:08.877Z,98865.28
2023-04-18T07:21:10.490Z,98864.78
2023-04-18T07:22:12.074Z,98871.22
2023-04-18T07:23:13.612Z,98874.44
2023-04-18T07:24:15.440Z,98878.47
2023-04-18T07:25:17.390Z,98876.31
2023-04-18T07:26:19.077Z,98876.00
2023-04-18T07:27:20.666Z,98874.59
2023-04-18T07:28:22.218Z,98883.91
2023-04-18T07:29:23.787Z,98866.09
2023-04-18T07:30:26.382Z,98875.66
2023-04-18T07:31:28.752Z,98872.84
2023-04-18T07:32:30.401Z,98865.44
2023-04-18T07:33:33.973Z,98871.72
2023-04-18T07:34:36.157Z,98858.00
2023-04-18T07:35:37.750Z,98853.63
2023-04-18T07:36:39.470Z,98860.88
2023-04-18T07:37:40.982Z,98861.09
2023-04-18T07:38:42.624Z,98867.09
2023-04-18T07:39:44.141Z,98867.41
2023-04-18T07:40:45.793Z,98871.97
2023-04-18T07:41:47.337Z,98870.00
2023-04-18T07:42:48.895Z,98859.47
2023-04-18T07:43:50.488Z,98867.88
2023-04-18T07:44:57.089Z,98862.78
2023-04-18T07:45:58.705Z,98861.41
2023-04-18T07:47:00.310Z,98871.63
2023-04-18T07:48:02.494Z,98859.53
2023-04-18T07:49:04.504Z,98866.19
2023-04-18T07:50:06.589Z,98871.28
2023-04-18T07:51:08.455Z,98866.13
2023-04-18T07:52:10.054Z,98864.72
2023-04-18T07:53:11.653Z,98875.06
2023-04-18T07:54:13.256Z,98872.47
2023-04-18T07:55:14.925Z,98866.53
2023-04-18T07:56:16.474Z,98870.50
2023-04-18T07:57:18.043Z,98867.63
2023-04-18T07:58:19.636Z,98872.50
2023-04-18T07:59:21.222Z,98866.19
2023-04-18T08:00:22.745Z,98866.31
2023-04-18T08:01:27.028Z,98868.38
2023-04-18T08:02:28.787Z,98869.03
2023-04-18T08:03:30.768Z,98865.59
2023-04-18T08:04:33.015Z,98868.06
2023-04-18T08:05:34.973Z,98863.78
2023-04-18T08:06:36.899Z,98866.94
2023-04-18T08:07:38.419Z,98867.81
2023-04-18T08:08:40.131Z,98865.19
2023-04-18T08:09:41.774Z,98874.56
2023-04-18T08:10:43.310Z,98866.50
2023-04-18T08:11:45.094Z,98882.97
2023-04-18T08:12:46.603Z,98875.66
2023-04-18T08:13:48.094Z,98877.97
2023-04-18T08:14:49.595Z,98873.03
2023-04-18T08:15:51.193Z,98878.63
2023-04-18T08:16:52.800Z,98879.53
2023-04-18T08:17:54.767Z,98876.00
2023-04-18T08:18:56.682Z,98876.81
2023-04-18T08:19:58.212Z,98875.56
2023-04-18T08:20:59.764Z,98888.75
2023-04-18T08:22:10.646Z,98885.16
2023-04-18T08:23:13.298Z,98889.34
2023-04-18T08:24:15.024Z,98876.53
2023-04-18T08:25:16.794Z,98884.22
2023-04-18T08:26:18.543Z,98877.69
2023-04-18T08:27:20.055Z,98875.94
2023-04-18T08:28:21.562Z,98878.19
2023-04-18T08:29:23.130Z,98871.28
2023-04-18T08:30:24.713Z,98876.72
2023-04-18T08:31:26.460Z,98873.81
2023-04-18T08:32:28.154Z,98872.09
2023-04-18T08:33:29.759Z,98877.53
2023-04-18T08:34:33.407Z,98874.34
2023-04-18T08:35:35.761Z,98872.84
2023-04-18T08:36:37.266Z,98871.41
2023-04-18T08:37:39.123Z,98869.56
2023-04-18T08:38:40.756Z,98869.31
2023-04-18T08:39:42.312Z,98866.34
2023-04-18T08:40:44.253Z,98868.66
2023-04-18T08:41:45.891Z,98867.25
2023-04-18T08:42:47.456Z,98868.00
2023-04-18T08:43:49.245Z,98874.00
2023-04-18T08:44:51.425Z,98851.38
2023-04-18T08:45:58.401Z,98864.53
2023-04-18T08:47:01.550Z,98862.78
2023-04-18T08:48:03.781Z,98862.53
2023-04-18T08:49:06.259Z,98855.25
2023-04-18T08:50:09.256Z,98862.28
2023-04-18T08:51:11.326Z,98858.34
2023-04-18T08:52:13.941Z,98862.72
2023-04-18T08:53:17.803Z,98870.47
2023-04-18T08:54:19.746Z,98873.88
2023-04-18T08:55:24.386Z,98876.00
2023-04-18T08:56:27.245Z,98871.00
2023-04-18T08:57:30.133Z,98877.28
2023-04-18T08:58:33.676Z,98870.47
2023-04-18T08:59:37.979Z,98874.69
2023-04-18T09:00:39.595Z,98882.34
2023-04-18T09:01:56.679Z,98877.97
2023-04-18T09:02:59.121Z,98872.09
2023-04-18T09:04:00.851Z,98875.22
2023-04-18T09:05:14.341Z,98878.53
2023-04-18T09:06:18.984Z,98881.84
2023-04-18T09:07:22.546Z,98877.31
2023-04-18T09:08:24.460Z,98885.00
2023-04-18T09:09:27.694Z,98886.31
2023-04-18T09:10:31.165Z,98883.72
2023-04-18T09:11:34.466Z,98886.28
2023-04-18T09:12:52.226Z,98887.88
2023-04-18T09:13:55.990Z,98877.66
2023-04-18T09:15:11.120Z,98870.97
2023-04-18T09:16:13.530Z,98877.22
2023-04-18T09:17:18.365Z,98873.81
2023-04-18T09:18:19.977Z,98870.81
2023-04-18T09:19:21.858Z,98876.94
2023-04-18T09:20:35.505Z,98881.59
2023-04-18T09:21:39.111Z,98876.00
2023-04-18T09:22:54.287Z,98883.34
2023-04-18T09:24:07.926Z,98876.38
2023-04-18T09:25:09.775Z,98880.63
2023-04-18T09:26:11.312Z,98883.53
2023-04-18T09:27:15.652Z,98885.56
2023-04-18T09:28:30.515Z,98878.94
2023-04-18T09:29:46.724Z,98883.22
2023-04-18T09:30:51.760Z,98878.47
2023-04-18T09:32:02.354Z,98881.50
2023-04-18T09:33:05.638Z,98878.81
2023-04-18T09:34:19.791Z,98881.75
2023-04-18T09:35:24.768Z,98881.66
2023-04-18T09:36:31.414Z,98884.00
2023-04-18T09:37:33.081Z,98871.03
2023-04-18T09:38:41.241Z,98875.66
2023-04-18T09:39:43.851Z,98876.13
2023-04-18T09:40:45.425Z,98867.13
2023-04-18T09:42:00.051Z,98875.09
2023-04-18T09:43:02.013Z,98868.34
2023-04-18T09:44:15.660Z,98867.50
2023-04-18T09:45:17.474Z,98874.53
2023-04-18T09:46:19.485Z,98865.94
2023-04-18T09:47:21.126Z,98871.97
2023-04-18T09:48:22.745Z,98869.75
2023-04-18T09:49:24.377Z,98875.78
2023-04-18T09:50:26.042Z,98868.50
2023-04-18T09:51:27.586Z,98867.44
2023-04-18T09:52:41.556Z,98869.09
2023-04-18T09:53:50.428Z,98868.97
2023-04-18T09:54:58.239Z,98865.78
2023-04-18T09:55:59.764Z,98874.69
2023-04-18T09:57:01.798Z,98857.03
2023-04-18T09:58:03.747Z,98874.03
2023-04-18T09:59:09.086Z,98863.28
2023-04-18T10:00:20.441Z,98868.34
2023-04-18T10:01:23.192Z,98871.81
2023-04-18T10:02:25.081Z,98870.22
2023-04-18T10:03:32.717Z,98876.19
2023-04-18T10:04:34.421Z,98864.09
2023-04-18T10:05:37.339Z,98865.53
2023-04-18T10:06:40.028Z,98852.97
2023-04-18T10:07:42.028Z,98866.25
2023-04-18T10:08:46.295Z,98865.31
2023-04-18T10:09:48.038Z,98869.56
2023-04-18T10:10:49.556Z,98861.16
2023-04-18T10:11:52.160Z,98870.06
2023-04-18T10:12:54.822Z,98871.88
2023-04-18T10:13:57.083Z,98868.09
2023-04-18T10:14:58.610Z,98866.25
2023-04-18T10:16:00.198Z,98868.97
2023-04-18T10:17:02.271Z,98860.91
2023-04-18T10:18:15.667Z,98868.72
2023-04-18T10:19:28.095Z,98867.44
2023-04-18T10:20:30.606Z,98877.81
2023-04-18T10:21:32.154Z,98869.56
2023-04-18T10:22:34.021Z,98876.75
2023-04-18T10:23:36.598Z,98865.28
2023-04-18T10:24:48.454Z,98868.09
2023-04-18T10:25:50.521Z,98869.09
2023-04-18T10:26:52.349Z,98862.91
2023-04-18T10:27:54.777Z,98871.56
2023-04-18T10:28:57.640Z,98872.06
2023-04-18T10:29:59.164Z,98864.84
2023-04-18T10:31:05.629Z,98863.72
2023-04-18T10:32:07.449Z,98858.22
2023-04-18T10:33:35.800Z,98857.88
2023-04-18T10:34:43.719Z,98865.50
2023-04-18T10:36:08.707Z,98862.28
2023-04-18T10:37:12.776Z,98862.59
2023-04-18T10:38:17.344Z,98865.13
2023-04-18T10:39:22.843Z,98858.22
2023-04-18T10:40:34.208Z,98860.16
2023-04-18T10:41:38.340Z,98856.75
2023-04-18T10:42:48.493Z,98855.13
2023-04-18T10:44:13.390Z,98847.81
2023-04-18T10:45:21.089Z,98844.84
2023-04-18T10:46:31.937Z,98847.88
2023-04-18T10:47:34.513Z,98845.97
2023-04-18T10:48:39.155Z,98852.13
2023-04-18T10:49:40.783Z,98847.06
2023-04-18T10:51:13.972Z,98850.19
2023-04-18T10:52:15.679Z,98848.66
2023-04-18T10:53:17.217Z,98849.66
2023-04-18T10:54:42.146Z,98846.88
2023-04-18T10:55:43.654Z,98852.00
2023-04-18T10:56:54.771Z,98851.03
2023-04-18T10:57:56.834Z,98845.50
2023-04-18T10:59:01.183Z,98843.22
2023-04-18T11:00:04.289Z,98842.31
2023-04-18T11:01:06.025Z,98836.88
2023-04-18T11:02:30.270Z,98849.00
2023-04-18T11:03:35.374Z,98838.69
2023-04-18T11:04:37.819Z,98843.56
2023-04-18T11:05:39.630Z,98844.16
2023-04-18T11:06:49.450Z,98834.41
2023-04-18T11:07:51.198Z,98829.47
2023-04-18T11:08:53.282Z,98833.09
2023-04-18T11:09:54.883Z,98832.78
2023-04-18T11:11:04.145Z,98831.34
2023-04-18T11:12:06.522Z,98832.31
2023-04-18T11:13:08.380Z,98823.69
2023-04-18T11:14:10.001Z,98831.41
2023-04-18T11:15:14.290Z,98832.31
2023-04-18T11:16:41.972Z,98828.25
2023-04-18T11:17:43.798Z,98826.50
2023-04-18T11:18:45.555Z,98821.59
2023-04-18T11:19:47.472Z,98822.16
2023-04-18T11:20:50.216Z,98817.03
2023-04-18T11:21:51.806Z,98820.94
2023-04-18T11:22:57.523Z,98813.81
2023-04-18T11:23:59.174Z,98809.06
2023-04-18T11:25:00.908Z,98812.66
2023-04-18T11:26:03.422Z,98814.34
2023-04-18T11:27:05.160Z,98814.69
2023-04-18T11:28:06.736Z,98818.59
2023-04-18T11:29:08.254Z,98820.97
2023-04-18T11:30:10.332Z,98816.81
2023-04-18T11:31:11.850Z,98820.75
2023-04-18T11:32:13.471Z,98823.69
2023-04-18T11:33:15.185Z,98807.41
2023-04-18T11:34:16.799Z,98819.75
2023-04-18T11:35:18.344Z,98814.09
2023-04-18T11:36:19.841Z,98812.59
2023-04-18T11:37:21.685Z,98814.50
2023-04-18T11:38:28.042Z,98818.56
2023-04-18T11:39:29.607Z,98815.09
2023-04-18T11:40:31.169Z,98810.63
2023-04-18T11:41:32.696Z,98816.69
2023-04-18T11:42:34.931Z,98817.25
2023-04-18T11:43:36.678Z,98813.22
2023-04-18T11:44:39.982Z,98803.50
2023-04-18T11:45:53.666Z,98815.03
2023-04-18T11:46:55.392Z,98812.31
2023-04-18T11:47:58.340Z,98821.63
2023-04-18T11:48:59.956Z,98813.19
2023-04-18T11:50:02.856Z,98821.13
2023-04-18T11:51:05.095Z,98815.28
2023-04-18T11:52:11.426Z,98816.38
2023-04-18T11:53:12.954Z,98817.09
2023-04-18T11:54:36.527Z,98825.66
2023-04-18T11:55:38.058Z,98820.44
2023-04-18T11:56:48.602Z,98817.91
2023-04-18T11:57:56.578Z,98826.28
2023-04-18T11:58:58.110Z,98833.00
2023-04-18T12:00:00.878Z,98822.34
2023-04-18T12:01:25.610Z,98826.34
2023-04-18T12:02:28.559Z,98822.28
2023-04-18T12:03:30.316Z,98826.72
2023-04-18T12:04:50.036Z,98817.19
2023-04-18T12:05:59.173Z,98830.13
2023-04-18T12:07:00.946Z,98824.25
2023-04-18T12:08:06.367Z,98824.84
2023-04-18T12:09:07.872Z,98824.88
2023-04-18T12:10:23.460Z,98823.31
2023-04-18T12:11:25.089Z,98832.44
2023-04-18T12:12:27.019Z,98823.22
2023-04-18T12:13:32.114Z,98825.94
2023-04-18T12:14:35.677Z,98826.66
2023-04-18T12:15:41.038Z,98826.41
2023-04-18T12:16:42.624Z,98822.84
2023-04-18T12:17:45.240Z,98815.13
2023-04-18T12:18:47.258Z,98811.22